METAR Data
IDs: Format: Raw Decoded Include TAF

Data at: 2057 UTC 19 May 2019

PAPM 191956Z AUTO 02003KT 10SM OVC065 10/03 A2970 RMK AO2 SLP059 T01000033
PAPM 191856Z AUTO 33006KT 5SM HZ OVC065 08/04 A2970 RMK AO2 SLP062 T00830039
PAPM 191756Z AUTO 34007KT 10SM BKN065 07/04 A2972 RMK AO2 SLP066 T00670044 10072 20017 58003
PAPM 191656Z AUTO 01005KT 10SM SCT060 OVC085 06/04 A2972 RMK AO2 SLP067 T00610044
PAPM 191556Z AUTO 02006KT 10SM FEW060 OVC085 06/04 A2972 RMK AO2 SLP068 T00560044
PAPM 191456Z AUTO 36003KT 10SM OVC085 04/03 A2973 RMK AO2 SLP069 T00440033 56009
PAPM 191356Z AUTO 05003KT 10SM CLR 04/03 A2973 RMK AO2 SLP071 T00390028
PAPM 191256Z AUTO 00000KT 10SM OVC080 04/03 A2974 RMK AO2 SLP074 T00440033
PAPM 191156Z AUTO 33008KT 10SM OVC065 05/03 A2975 RMK AO2 SLP078 T00500033 10067 20044 58008
PAPM 191056Z AUTO 33007KT 10SM FEW075 04/03 A2977 RMK AO2 SLP082 T00440033
PAPM 190956Z AUTO 33008KT 10SM FEW065 06/03 A2977 RMK AO2 SLP083 T00560033
PAPM 190856Z AUTO 33009KT 10SM BKN080 05/03 A2978 RMK AO2 SLP086 T00500033 400720033 58004
PAPM 190756Z AUTO 32008KT 10SM FEW060 05/03 A2978 RMK AO2 SLP088 T00500033
PAPM 190656Z AUTO 32008KT 10SM CLR 06/03 A2979 RMK AO2 SLP090 T00560028
PAPM 190556Z AUTO 30010KT 10SM FEW075 07/03 A2979 RMK AO2 SLP090 T00670033 10072 20061 56005
PAPM 190456Z AUTO 28010KT 10SM CLR 07/02 A2979 RMK AO2 SLP090 T00670022
PAPM 190356Z AUTO 29010KT 10SM CLR 06/02 A2980 RMK AO2 SLP094 T00610017
PAPM 190256Z AUTO 28010KT 10SM CLR 07/01 A2980 RMK AO2 SLP095 T00670011 53001
PAPM 190156Z AUTO 25008KT 10SM CLR 07/02 A2980 RMK AO2 SLP095 T00670017
PAPM 190056Z AUTO 25007KT 10SM CLR 07/02 A2980 RMK AO2 SLP094 T00720017
PAPM 182356Z AUTO 24007KT 10SM CLR 07/02 A2980 RMK AO2 SLP094 T00670017 10072 20050 51003
PAPM 182256Z AUTO 23008KT 10SM FEW038 07/01 A2980 RMK AO2 SLP094 T00670011
PAPM 182156Z AUTO 24006KT 8SM SCT032 07/02 A2980 RMK AO2 SLP092 T00670017
PAPM 182134Z AUTO 24006KT 10SM SCT030 07/02 A2979 RMK AO2
PAPM 182056Z AUTO 23006KT 6SM HZ BKN023 OVC030 06/02 A2979 RMK AO2 SLP091 T00610017 51006
PAPM 181956Z AUTO 20006KT 8SM OVC019 06/02 A2979 RMK AO2 SLP089 T00560022
PAPM 181856Z AUTO 18008KT 10SM OVC015 06/02 A2978 RMK AO2 SLP088 T00560022
PAPM 181756Z AUTO 16007KT 10SM OVC015 05/02 A2977 RMK AO2 SLP085 T00500022 10050 20033 53008
PAPM 181728Z AUTO 15004KT 10SM OVC015 04/02 A2977 RMK AO2
PAPM 181656Z AUTO 10004KT 10SM OVC013 04/02 A2976 RMK AO2 SLP081 T00440017
PAPM 181556Z AUTO 09004KT 10SM OVC013 04/02 A2976 RMK AO2 SLP079 T00390017
PAPM 181456Z AUTO 10005KT 10SM OVC013 03/02 A2975 RMK AO2 SLP077 T00330017 51008
PAPM 181356Z AUTO 13006KT 10SM OVC013 04/01 A2974 RMK AO2 SLP075 T00390011
PAPM 181256Z AUTO 14007KT 10SM OVC013 04/01 A2973 RMK AO2 SLP072 T00390011
PAPM 181156Z AUTO 13009KT 10SM OVC013 04/02 A2972 RMK AO2 SLP068 70002 T00390017 10050 20039 53011
PAPM 181056Z AUTO 13007KT 10SM OVC013 04/02 A2971 RMK AO2 SLP064 T00440017
PAPM 180956Z AUTO 13006KT 10SM OVC013 04/02 A2970 RMK AO2 SLP060 T00440022